createdAt,value
2018-07-12T00:00:34.177Z,34.30
2018-07-12T00:03:04.262Z,32.05
2018-07-12T00:05:37.316Z,28.23
2018-07-12T00:08:07.570Z,32.15
2018-07-12T00:10:39.562Z,29.80
2018-07-12T00:13:15.673Z,23.60
2018-07-12T00:15:48.617Z,23.97
2018-07-12T00:18:19.098Z,28.67
2018-07-12T00:20:58.744Z,28.07
2018-07-12T00:23:29.702Z,36.70
2018-07-12T00:26:04.981Z,36.13
2018-07-12T00:28:35.965Z,33.45
2018-07-12T00:31:06.325Z,27.27
2018-07-12T00:33:39.625Z,29.57
2018-07-12T00:36:13.288Z,28.33
2018-07-12T00:38:44.435Z,36.95
2018-07-12T00:41:18.065Z,36.15
2018-07-12T00:43:49.378Z,29.30
2018-07-12T00:46:20.331Z,33.35
2018-07-12T00:48:50.689Z,31.98
2018-07-12T00:51:21.590Z,28.50
2018-07-12T00:53:52.365Z,27.37
2018-07-12T00:56:23.058Z,26.80
2018-07-12T00:58:53.396Z,34.47
2018-07-12T01:01:23.758Z,36.90
2018-07-12T01:03:56.018Z,34.83
2018-07-12T01:06:28.454Z,32.15
2018-07-12T01:08:58.617Z,32.30
2018-07-12T01:11:31.602Z,28.73
2018-07-12T01:14:03.579Z,36.13
2018-07-12T01:16:35.704Z,32.03
2018-07-12T01:19:07.184Z,32.83
2018-07-12T01:21:39.782Z,40.58
2018-07-12T01:27:30.640Z,33.37
2018-07-12T01:30:04.248Z,36.00
2018-07-12T01:32:34.546Z,35.37
2018-07-12T01:35:04.900Z,37.80
2018-07-12T01:37:35.219Z,35.67
2018-07-12T01:40:05.749Z,44.35
2018-07-12T01:42:36.242Z,42.88
2018-07-12T01:45:06.399Z,35.10
2018-07-12T01:47:36.482Z,33.30
2018-07-12T01:50:07.045Z,39.13
2018-07-12T01:52:37.381Z,49.20
2018-07-12T01:55:07.717Z,42.13
2018-07-12T01:57:39.621Z,48.60
2018-07-12T02:00:10.218Z,40.50
2018-07-12T02:02:46.365Z,42.72
2018-07-12T02:05:16.777Z,36.00
2018-07-12T02:07:48.560Z,34.67
2018-07-12T02:10:19.864Z,36.87
2018-07-12T02:12:50.178Z,44.10
2018-07-12T02:15:20.346Z,44.17
2018-07-12T02:17:51.238Z,57.27
2018-07-12T02:20:42.881Z,61.03
2018-07-12T02:23:16.704Z,82.32
2018-07-12T02:25:47.630Z,81.85
2018-07-12T02:28:18.735Z,57.62
2018-07-12T02:30:50.556Z,49.90
2018-07-12T02:33:22.524Z,54.15
2018-07-12T02:35:54.794Z,43.67
2018-07-12T02:38:25.205Z,41.30
2018-07-12T02:40:56.698Z,42.03
2018-07-12T02:43:26.887Z,79.20
2018-07-12T02:45:57.882Z,54.10
2018-07-12T02:48:32.731Z,50.90
2018-07-12T02:51:03.671Z,49.07
2018-07-12T02:53:34.225Z,65.62
2018-07-12T02:56:04.316Z,52.50
2018-07-12T02:58:34.470Z,51.40
2018-07-12T03:01:06.220Z,45.87
2018-07-12T03:03:36.307Z,49.80
2018-07-12T03:06:06.512Z,50.90
2018-07-12T03:08:37.006Z,69.10
2018-07-12T03:11:07.322Z,63.75
2018-07-12T03:13:38.663Z,63.30
2018-07-12T03:16:08.958Z,53.90
2018-07-12T03:18:39.720Z,59.45
2018-07-12T03:21:10.565Z,46.80
2018-07-12T03:23:41.188Z,55.15
2018-07-12T03:26:11.330Z,63.72
2018-07-12T03:28:41.653Z,46.10
2018-07-12T03:31:11.722Z,41.93
2018-07-12T03:33:43.111Z,39.37
2018-07-12T03:36:13.222Z,42.70
2018-07-12T03:38:43.714Z,50.87
2018-07-12T03:41:14.753Z,58.87
2018-07-12T03:43:45.020Z,58.67
2018-07-12T03:46:15.313Z,60.03
2018-07-12T03:49:17.294Z,71.00
2018-07-12T03:51:49.128Z,66.57
2018-07-12T03:54:22.418Z,95.03
2018-07-12T03:56:55.185Z,99.37
2018-07-12T03:59:25.304Z,71.13
2018-07-12T04:01:56.216Z,72.12
2018-07-12T04:04:26.373Z,55.80
2018-07-12T04:06:57.560Z,85.23
2018-07-12T04:09:28.007Z,95.93
2018-07-12T04:11:59.457Z,60.73
2018-07-12T04:14:29.680Z,68.90
2018-07-12T04:17:00.041Z,85.07
2018-07-12T04:19:30.141Z,70.47
2018-07-12T04:22:00.702Z,103.57
2018-07-12T04:24:30.987Z,65.57
2018-07-12T04:27:02.167Z,52.00
2018-07-12T04:29:34.330Z,80.37
2018-07-12T04:32:05.683Z,57.87
2018-07-12T04:34:36.915Z,73.53
2018-07-12T04:37:07.763Z,65.53
2018-07-12T04:39:39.458Z,51.27
2018-07-12T04:42:09.849Z,70.63
2018-07-12T04:44:41.076Z,77.43
2018-07-12T04:47:11.310Z,74.35
2018-07-12T04:49:41.841Z,75.73
2018-07-12T04:52:12.636Z,66.03
2018-07-12T04:54:42.817Z,43.30
2018-07-12T04:57:12.985Z,44.70
2018-07-12T04:59:43.361Z,61.83
2018-07-12T05:02:13.641Z,59.60
2018-07-12T05:04:45.637Z,53.93
2018-07-12T05:07:16.753Z,46.67
2018-07-12T05:09:47.930Z,52.57
2018-07-12T05:12:19.037Z,62.35
2018-07-12T05:14:49.212Z,55.43
2018-07-12T05:17:20.333Z,51.00
2018-07-12T05:19:52.105Z,59.28
2018-07-12T05:22:23.303Z,54.80
2018-07-12T05:25:11.178Z,62.47
2018-07-12T05:27:45.813Z,49.57
2018-07-12T05:30:16.981Z,52.77
2018-07-12T05:32:49.088Z,56.33
2018-07-12T05:35:19.447Z,60.60
2018-07-12T05:37:55.692Z,60.90
2018-07-12T05:40:28.675Z,66.70
2018-07-12T05:43:02.438Z,71.50
2018-07-12T05:45:35.866Z,71.43
2018-07-12T05:48:08.674Z,64.27
2018-07-12T05:50:48.816Z,66.17
2018-07-12T05:53:22.446Z,70.00
2018-07-12T05:55:55.524Z,64.87
2018-07-12T05:58:28.382Z,66.87
2018-07-12T06:02:15.783Z,69.73
2018-07-12T06:04:53.953Z,79.70
2018-07-12T06:07:28.908Z,77.43
2018-07-12T06:10:02.281Z,79.60
2018-07-12T06:12:34.725Z,86.00
2018-07-12T06:15:09.578Z,76.57
2018-07-12T06:17:44.365Z,74.07
2018-07-12T06:20:19.256Z,74.33
2018-07-12T06:22:55.169Z,81.20
2018-07-12T06:25:28.949Z,87.03
2018-07-12T06:28:04.205Z,79.47
2018-07-12T06:30:37.717Z,83.40
2018-07-12T06:33:10.141Z,85.40
2018-07-12T06:35:44.745Z,93.12
2018-07-12T06:38:33.979Z,70.70
2018-07-12T06:41:10.689Z,88.57
2018-07-12T06:43:45.228Z,85.67
2018-07-12T06:46:18.301Z,75.63
2018-07-12T06:48:51.858Z,74.93
2018-07-12T06:51:26.120Z,72.07
2018-07-12T06:54:01.029Z,71.47
2018-07-12T06:56:36.721Z,89.40
2018-07-12T06:59:14.680Z,90.38
2018-07-12T07:01:48.680Z,64.33
2018-07-12T07:04:25.446Z,70.80
2018-07-12T07:06:59.741Z,74.63
2018-07-12T07:09:36.291Z,74.55
2018-07-12T07:12:16.837Z,64.57
2018-07-12T07:14:51.121Z,70.28
2018-07-12T07:17:27.660Z,68.47
2018-07-12T07:20:02.198Z,62.37
2018-07-12T07:22:35.261Z,65.67
2018-07-12T07:25:08.793Z,57.07
2018-07-12T07:27:42.262Z,63.90
2018-07-12T07:30:19.606Z,74.62
2018-07-12T07:32:53.769Z,55.97
2018-07-12T07:35:28.487Z,53.33
2018-07-12T07:38:05.143Z,57.77
2018-07-12T07:40:39.669Z,49.23
2018-07-12T07:43:13.649Z,50.93
2018-07-12T07:45:51.075Z,50.70
2018-07-12T07:48:25.141Z,54.27
2018-07-12T07:50:59.491Z,56.90
2018-07-12T07:53:34.021Z,61.07
2018-07-12T07:56:06.764Z,61.40
2018-07-12T07:58:49.869Z,57.97
2018-07-12T08:01:24.429Z,61.63
2018-07-12T08:03:59.685Z,55.07
2018-07-12T08:06:33.779Z,52.90
2018-07-12T08:09:07.579Z,63.92
2018-07-12T08:11:41.111Z,57.77
2018-07-12T08:14:15.025Z,50.93
2018-07-12T08:16:49.541Z,51.53
2018-07-12T08:19:25.170Z,43.63
2018-07-12T08:22:08.484Z,55.03
2018-07-12T08:24:41.643Z,55.03
2018-07-12T08:27:15.944Z,47.73
2018-07-12T08:29:52.206Z,44.73
2018-07-12T08:32:26.044Z,42.57
2018-07-12T08:34:59.703Z,40.43
2018-07-12T08:37:34.572Z,44.67
2018-07-12T08:40:11.029Z,45.17
2018-07-12T08:42:45.148Z,45.70
2018-07-12T08:45:19.856Z,45.10
2018-07-12T08:47:55.670Z,47.87
2018-07-12T08:50:35.773Z,45.57
2018-07-12T08:53:10.038Z,40.80
2018-07-12T08:55:43.598Z,45.25
2018-07-12T08:58:17.700Z,37.33
2018-07-12T09:00:51.572Z,43.87
2018-07-12T09:03:24.849Z,46.73
2018-07-12T09:06:01.934Z,44.70
2018-07-12T09:08:34.805Z,38.77
2018-07-12T09:11:08.145Z,38.03
2018-07-12T09:13:41.081Z,38.90
2018-07-12T09:16:17.018Z,39.80
2018-07-12T09:18:53.895Z,41.08
2018-07-12T09:21:28.553Z,44.87
2018-07-12T09:24:01.461Z,42.17
2018-07-12T09:26:34.553Z,42.70
2018-07-12T09:29:07.606Z,38.77
2018-07-12T09:31:41.297Z,32.87
2018-07-12T09:34:13.904Z,26.00
2018-07-12T09:36:49.361Z,28.20
2018-07-12T09:39:24.492Z,27.37
2018-07-12T09:41:59.446Z,25.00
2018-07-12T09:44:34.078Z,21.77
2018-07-12T09:47:09.310Z,21.50
2018-07-12T09:49:45.139Z,24.10
2018-07-12T09:52:24.400Z,24.80
2018-07-12T09:54:58.062Z,23.57
2018-07-12T09:57:53.657Z,26.05
2018-07-12T10:00:33.281Z,22.10
2018-07-12T10:03:14.457Z,19.70
2018-07-12T10:05:56.962Z,20.23
2018-07-12T10:08:37.645Z,20.63
2018-07-12T10:11:30.429Z,19.67
2018-07-12T10:14:09.234Z,21.67
2018-07-12T10:17:10.949Z,20.80
2018-07-12T10:19:56.440Z,21.33
2018-07-12T10:22:33.041Z,19.60
2018-07-12T10:25:12.220Z,21.03
2018-07-12T10:27:48.915Z,20.00
2018-07-12T10:30:24.506Z,20.20
2018-07-12T10:32:57.106Z,20.23
2018-07-12T10:35:37.626Z,19.10
2018-07-12T10:38:11.902Z,19.97
2018-07-12T10:40:56.451Z,20.33
2018-07-12T10:43:31.977Z,23.93
2018-07-12T10:46:10.429Z,22.90
2018-07-12T10:48:43.017Z,24.60
2018-07-12T10:51:16.154Z,20.57
2018-07-12T10:53:49.393Z,25.17
2018-07-12T10:56:24.563Z,21.45
2018-07-12T10:59:02.364Z,20.27
2018-07-12T11:01:35.702Z,22.92
2018-07-12T11:04:09.153Z,19.37
2018-07-12T11:06:46.177Z,19.10
2018-07-12T11:09:19.124Z,20.50
2018-07-12T11:11:58.526Z,20.23
2018-07-12T11:14:33.688Z,20.37
2018-07-12T11:17:09.384Z,19.23
2018-07-12T11:19:44.190Z,20.37
2018-07-12T11:22:18.961Z,19.87
2018-07-12T11:24:52.517Z,21.10
2018-07-12T11:27:26.894Z,20.17
2018-07-12T11:30:05.415Z,17.60
2018-07-12T11:32:38.985Z,16.37
2018-07-12T11:35:14.409Z,15.33
2018-07-12T11:37:48.526Z,14.80
2018-07-12T11:40:21.753Z,15.47
2018-07-12T11:43:01.496Z,16.87
2018-07-12T11:45:41.650Z,15.43
2018-07-12T11:48:15.656Z,13.47
2018-07-12T11:50:49.755Z,12.60
2018-07-12T11:53:25.166Z,13.90
2018-07-12T11:55:58.301Z,13.93
2018-07-12T11:58:34.414Z,12.77
2018-07-12T12:01:07.767Z,14.13
2018-07-12T12:03:41.361Z,13.57
2018-07-12T12:06:14.182Z,13.87
2018-07-12T12:08:47.463Z,11.57
2018-07-12T12:11:21.674Z,12.77
2018-07-12T12:13:58.978Z,12.90
2018-07-12T12:16:32.798Z,12.90
2018-07-12T12:19:07.864Z,12.87
2018-07-12T12:21:50.410Z,14.93
2018-07-12T12:24:31.552Z,15.23
2018-07-12T12:27:05.487Z,15.17
2018-07-12T12:29:40.456Z,15.13
2018-07-12T12:32:15.510Z,15.00
2018-07-12T12:34:50.363Z,13.33
2018-07-12T12:37:25.139Z,13.70
2018-07-12T12:39:58.639Z,11.00
2018-07-12T12:42:32.936Z,10.23
2018-07-12T12:45:09.283Z,11.37
2018-07-12T12:47:56.125Z,11.80
2018-07-12T12:50:32.581Z,9.93
2018-07-12T12:53:07.815Z,11.10
2018-07-12T12:55:42.520Z,11.73
2018-07-12T12:58:19.613Z,9.53
2018-07-12T13:00:55.277Z,10.63
2018-07-12T13:03:41.878Z,11.07
2018-07-12T13:06:32.477Z,11.07
2018-07-12T13:09:13.479Z,9.70
2018-07-12T13:11:49.750Z,9.87
2018-07-12T13:14:25.475Z,9.13
2018-07-12T13:17:02.345Z,7.63
2018-07-12T13:19:39.353Z,8.23
2018-07-12T13:22:14.325Z,4.80
2018-07-12T13:24:47.373Z,5.67
2018-07-12T13:27:21.965Z,5.60
2018-07-12T13:29:57.864Z,5.80
2018-07-12T13:32:34.341Z,6.30
2018-07-12T13:35:10.904Z,5.83
2018-07-12T13:37:44.822Z,8.77
2018-07-12T13:40:20.249Z,8.13
2018-07-12T13:42:53.497Z,8.73
2018-07-12T13:45:34.118Z,6.77
2018-07-12T13:48:22.991Z,6.70
2018-07-12T13:50:55.940Z,6.90
2018-07-12T13:53:30.136Z,5.40
2018-07-12T13:56:03.230Z,5.17
2018-07-12T14:27:44.110Z,3.60
2018-07-12T14:30:27.689Z,4.10
2018-07-12T14:33:07.624Z,3.77
2018-07-12T14:35:44.714Z,4.60
2018-07-12T14:38:19.300Z,4.32
2018-07-12T14:40:53.104Z,4.10
2018-07-12T14:43:27.951Z,4.17
2018-07-12T14:46:01.539Z,3.77
2018-07-12T14:48:35.471Z,3.53
2018-07-12T14:51:09.193Z,3.43
2018-07-12T14:53:41.809Z,3.73
2018-07-12T14:56:17.679Z,3.67
2018-07-12T14:58:51.289Z,4.07
2018-07-12T15:01:24.720Z,4.00
2018-07-12T15:03:58.598Z,3.27
2018-07-12T15:06:31.280Z,3.33
2018-07-12T15:09:08.772Z,4.40
2018-07-12T15:11:47.266Z,3.70
2018-07-12T15:14:19.863Z,3.87
2018-07-12T15:16:55.875Z,3.50
2018-07-12T15:19:30.802Z,3.40
2018-07-12T15:22:06.921Z,3.87
2018-07-12T15:24:40.090Z,4.03
2018-07-12T15:27:15.845Z,3.57
2018-07-12T15:29:49.423Z,3.70
2018-07-12T15:32:22.982Z,4.27
2018-07-12T15:34:59.077Z,4.70
2018-07-12T15:37:33.557Z,4.30
2018-07-12T15:40:08.018Z,4.30
2018-07-12T15:42:43.600Z,3.80
2018-07-12T15:45:21.280Z,3.40
2018-07-12T15:47:55.192Z,3.63
2018-07-12T15:50:27.927Z,3.30
2018-07-12T15:53:06.751Z,2.90
2018-07-12T15:55:55.831Z,3.37
2018-07-12T15:58:40.225Z,3.53
2018-07-12T16:01:15.336Z,3.78
2018-07-12T16:03:51.846Z,4.40
2018-07-12T16:06:28.524Z,4.13
2018-07-12T16:09:10.697Z,4.45
2018-07-12T16:11:49.856Z,3.93
2018-07-12T16:14:25.145Z,4.23
2018-07-12T16:16:59.981Z,3.80
2018-07-12T16:19:36.089Z,4.10
2018-07-12T16:22:14.855Z,4.43
2018-07-12T16:24:51.302Z,4.00
2018-07-12T16:27:41.393Z,3.80
2018-07-12T16:30:25.369Z,3.90
2018-07-12T16:33:00.409Z,3.50
2018-07-12T16:35:34.889Z,4.00
2018-07-12T16:38:17.490Z,3.43
2018-07-12T16:40:54.358Z,3.83
2018-07-12T16:43:28.655Z,3.60
2018-07-12T16:46:05.315Z,3.30
2018-07-12T16:48:41.081Z,3.20
2018-07-12T16:51:15.746Z,3.13
2018-07-12T16:53:50.655Z,3.17
2018-07-12T16:56:31.352Z,3.00
2018-07-12T16:59:06.676Z,3.12
2018-07-12T17:01:41.928Z,3.53
2018-07-12T17:04:15.854Z,3.87
2018-07-12T17:06:48.620Z,3.30
2018-07-12T17:09:26.569Z,4.00
2018-07-12T17:12:00.566Z,3.73
2018-07-12T17:14:34.062Z,3.47
2018-07-12T17:17:12.005Z,3.40
2018-07-12T17:19:45.501Z,3.67
2018-07-12T17:22:18.472Z,3.27
2018-07-12T17:24:51.588Z,3.40
2018-07-12T17:27:30.294Z,3.42
2018-07-12T17:30:07.714Z,3.47
2018-07-12T17:32:42.544Z,3.10
2018-07-12T17:35:15.244Z,3.10
2018-07-12T17:37:49.259Z,3.27
2018-07-12T17:40:26.450Z,2.70
2018-07-12T17:43:03.056Z,2.83
2018-07-12T17:45:37.381Z,2.80
2018-07-12T17:48:19.318Z,2.83
2018-07-12T17:50:51.909Z,2.63
2018-07-12T17:53:26.625Z,3.03
2018-07-12T17:56:00.759Z,2.80
2018-07-12T17:58:35.704Z,2.73
2018-07-12T18:01:09.924Z,3.23
2018-07-12T18:03:45.672Z,3.13
2018-07-12T18:06:20.396Z,3.10
2018-07-12T18:08:56.020Z,3.30
2018-07-12T18:11:30.469Z,3.67
2018-07-12T18:14:07.066Z,3.53
2018-07-12T18:16:43.100Z,3.47
2018-07-12T18:19:20.341Z,3.33
2018-07-12T18:21:56.309Z,3.03
2018-07-12T18:24:32.803Z,3.35
2018-07-12T18:27:08.747Z,3.00
2018-07-12T18:29:45.124Z,3.07
2018-07-12T18:32:19.494Z,3.00
2018-07-12T18:34:56.558Z,3.13
2018-07-12T18:37:34.111Z,2.90
2018-07-12T18:40:10.520Z,3.15
2018-07-12T18:42:47.557Z,3.20
2018-07-12T18:45:32.987Z,3.53
2018-07-12T18:48:09.750Z,3.00
2018-07-12T18:50:44.305Z,2.80
2018-07-12T18:53:20.619Z,2.90
2018-07-12T18:55:53.170Z,2.80
2018-07-12T18:58:28.216Z,2.67
2018-07-12T19:01:01.517Z,3.07
2018-07-12T19:03:34.771Z,2.85
2018-07-12T19:06:08.467Z,3.00
2018-07-12T19:08:43.981Z,2.43
2018-07-12T19:11:28.013Z,3.00
2018-07-12T19:14:04.129Z,2.80
2018-07-12T19:16:39.589Z,2.50
2018-07-12T19:19:16.109Z,2.47
2018-07-12T19:21:53.086Z,2.67
2018-07-12T19:24:48.417Z,2.37
2018-07-12T19:27:30.263Z,2.40
2018-07-12T19:30:09.521Z,2.50
2018-07-12T19:32:49.336Z,2.90
2018-07-12T19:35:31.949Z,2.40
2018-07-12T19:38:09.020Z,2.30
2018-07-12T19:40:47.469Z,2.53
2018-07-12T19:43:25.678Z,2.80
2018-07-12T19:46:00.389Z,3.10
2018-07-12T19:48:43.564Z,2.60
2018-07-12T19:51:17.298Z,2.80
2018-07-12T19:53:59.894Z,3.07
2018-07-12T19:56:33.983Z,2.83
2018-07-12T19:59:08.744Z,3.13
2018-07-12T20:01:47.474Z,2.57
2018-07-12T20:04:23.216Z,2.62
2018-07-12T20:06:58.338Z,2.80
2018-07-12T20:09:35.302Z,2.37
2018-07-12T20:12:10.446Z,3.10
2018-07-12T20:14:45.196Z,2.70
2018-07-12T20:17:23.847Z,2.47
2018-07-12T20:19:58.055Z,2.43
2018-07-12T20:22:35.496Z,2.47
2018-07-12T20:25:10.816Z,2.50
2018-07-12T20:27:45.765Z,2.50
2018-07-12T20:30:23.396Z,2.73
2018-07-12T20:32:57.241Z,2.50
2018-07-12T20:35:31.387Z,2.50
2018-07-12T20:38:07.955Z,2.60
2018-07-12T20:40:43.989Z,3.20
2018-07-12T20:43:22.415Z,2.77
2018-07-12T20:45:55.271Z,2.43
2018-07-12T20:48:36.130Z,3.30
2018-07-12T20:51:16.926Z,3.00
2018-07-12T20:53:52.643Z,3.35
2018-07-12T20:56:28.717Z,2.70
2018-07-12T20:59:03.678Z,3.40
2018-07-12T21:01:44.317Z,3.50
2018-07-12T21:04:17.992Z,3.13
2018-07-12T21:06:52.395Z,3.10
2018-07-12T21:09:25.620Z,3.10
2018-07-12T21:12:05.634Z,3.23
2018-07-12T21:14:39.817Z,2.50
2018-07-12T21:17:17.753Z,3.20
2018-07-12T21:19:57.234Z,2.63
2018-07-12T21:22:32.320Z,2.83
2018-07-12T21:25:09.015Z,3.10
2018-07-12T21:27:46.243Z,3.85
2018-07-12T21:30:19.242Z,3.60
2018-07-12T21:32:52.602Z,2.53
2018-07-12T21:35:32.577Z,3.47
2018-07-12T21:38:06.664Z,4.30
2018-07-12T21:40:40.926Z,3.77
2018-07-12T21:43:16.490Z,4.17
2018-07-12T21:45:53.128Z,3.93
2018-07-12T21:48:30.690Z,4.70
2018-07-12T21:51:17.480Z,4.50
2018-07-12T21:53:52.015Z,4.50
2018-07-12T21:56:28.010Z,3.70
2018-07-12T21:59:04.342Z,4.07
2018-07-12T22:01:42.951Z,4.20
2018-07-12T22:04:18.429Z,4.40
2018-07-12T22:09:30.749Z,4.90
2018-07-12T22:12:06.150Z,4.87
2018-07-12T22:14:41.034Z,4.60
2018-07-12T22:17:18.051Z,4.73
2018-07-12T22:20:00.247Z,4.93
2018-07-12T22:22:34.074Z,5.70
2018-07-12T22:25:09.833Z,5.68
2018-07-12T22:27:44.845Z,4.97
2018-07-12T22:30:16.759Z,4.90
2018-07-12T22:32:50.615Z,4.00
2018-07-12T22:35:27.530Z,4.93
2018-07-12T22:38:03.145Z,5.03
2018-07-12T22:40:38.902Z,4.00
2018-07-12T22:43:12.465Z,5.00
2018-07-12T22:45:47.561Z,5.32
2018-07-12T22:48:21.732Z,4.30
2018-07-12T22:50:56.469Z,4.80
2018-07-12T22:53:38.790Z,5.10
2018-07-12T22:56:16.529Z,6.10
2018-07-12T22:58:55.879Z,5.80
2018-07-12T23:01:31.010Z,6.33
2018-07-12T23:04:05.132Z,5.87
2018-07-12T23:06:39.149Z,6.00
2018-07-12T23:09:12.887Z,6.50
2018-07-12T23:11:48.346Z,6.47
2018-07-12T23:14:20.931Z,7.50
2018-07-12T23:16:53.749Z,7.10
2018-07-12T23:19:26.688Z,6.93
2018-07-12T23:22:07.981Z,6.80
2018-07-12T23:24:46.909Z,7.80
2018-07-12T23:27:19.439Z,8.23
2018-07-12T23:30:14.487Z,8.90
2018-07-12T23:32:47.064Z,8.13
2018-07-12T23:35:19.722Z,8.50
2018-07-12T23:37:52.654Z,7.60
2018-07-12T23:40:25.467Z,7.80
2018-07-12T23:42:59.071Z,8.00
2018-07-12T23:45:34.039Z,7.87
2018-07-12T23:48:06.678Z,8.80
2018-07-12T23:50:39.210Z,8.80
2018-07-12T23:53:14.374Z,7.33
2018-07-12T23:55:47.288Z,7.77
2018-07-12T23:58:20.050Z,7.23
